sensor_id;sensor_type;location;lat;lon;timestamp;P1;durP1;ratioP1;P2;durP2;ratioP2
35578;SDS011;21687;48.900;9.188;2023-04-08T00:00:51;12.33;;;9.27;;
35578;SDS011;21687;48.900;9.188;2023-04-08T00:03:18;13.27;;;9.43;;
35578;SDS011;21687;48.900;9.188;2023-04-08T00:05:46;11.80;;;9.83;;
35578;SDS011;21687;48.900;9.188;2023-04-08T00:08:12;10.80;;;8.93;;
35578;SDS011;21687;48.900;9.188;2023-04-08T00:10:38;12.03;;;9.83;;
35578;SDS011;21687;48.900;9.188;2023-04-08T00:13:05;14.90;;;9.93;;
35578;SDS011;21687;48.900;9.188;2023-04-08T00:15:31;12.43;;;10.30;;
35578;SDS011;21687;48.900;9.188;2023-04-08T00:17:57;13.73;;;10.80;;
35578;SDS011;21687;48.900;9.188;2023-04-08T00:20:23;14.00;;;10.67;;
35578;SDS011;21687;48.900;9.188;2023-04-08T00:22:50;14.77;;;10.93;;
35578;SDS011;21687;48.900;9.188;2023-04-08T00:25:16;13.87;;;10.87;;
35578;SDS011;21687;48.900;9.188;2023-04-08T00:27:42;14.30;;;11.47;;
35578;SDS011;21687;48.900;9.188;2023-04-08T00:30:09;14.17;;;10.73;;
35578;SDS011;21687;48.900;9.188;2023-04-08T00:32:35;15.00;;;11.53;;
35578;SDS011;21687;48.900;9.188;2023-04-08T00:35:02;15.73;;;11.10;;
35578;SDS011;21687;48.900;9.188;2023-04-08T00:37:29;13.73;;;10.60;;
35578;SDS011;21687;48.900;9.188;2023-04-08T00:39:55;14.00;;;10.50;;
35578;SDS011;21687;48.900;9.188;2023-04-08T00:42:22;14.37;;;10.77;;
35578;SDS011;21687;48.900;9.188;2023-04-08T00:44:48;14.57;;;10.90;;
35578;SDS011;21687;48.900;9.188;2023-04-08T00:47:14;12.53;;;10.77;;
35578;SDS011;21687;48.900;9.188;2023-04-08T00:49:41;14.03;;;10.37;;
35578;SDS011;21687;48.900;9.188;2023-04-08T00:52:08;12.60;;;10.80;;
35578;SDS011;21687;48.900;9.188;2023-04-08T00:54:35;15.53;;;11.13;;
35578;SDS011;21687;48.900;9.188;2023-04-08T00:57:02;17.27;;;12.37;;
35578;SDS011;21687;48.900;9.188;2023-04-08T00:59:29;14.37;;;11.27;;
35578;SDS011;21687;48.900;9.188;2023-04-08T01:02:11;13.40;;;10.50;;
35578;SDS011;21687;48.900;9.188;2023-04-08T01:07:14;16.73;;;11.33;;
35578;SDS011;21687;48.900;9.188;2023-04-08T01:09:45;16.47;;;10.80;;
35578;SDS011;21687;48.900;9.188;2023-04-08T01:12:21;15.40;;;11.47;;
35578;SDS011;21687;48.900;9.188;2023-04-08T01:14:56;13.23;;;10.90;;
35578;SDS011;21687;48.900;9.188;2023-04-08T01:17:31;13.63;;;10.73;;
35578;SDS011;21687;48.900;9.188;2023-04-08T01:19:59;13.87;;;11.10;;
35578;SDS011;21687;48.900;9.188;2023-04-08T01:25:08;13.37;;;10.63;;
35578;SDS011;21687;48.900;9.188;2023-04-08T01:27:44;16.13;;;11.17;;
35578;SDS011;21687;48.900;9.188;2023-04-08T01:30:12;13.80;;;11.80;;
35578;SDS011;21687;48.900;9.188;2023-04-08T01:32:41;14.63;;;11.27;;
35578;SDS011;21687;48.900;9.188;2023-04-08T01:35:09;14.70;;;11.37;;
35578;SDS011;21687;48.900;9.188;2023-04-08T01:37:37;13.70;;;11.53;;
35578;SDS011;21687;48.900;9.188;2023-04-08T01:40:05;13.33;;;10.47;;
35578;SDS011;21687;48.900;9.188;2023-04-08T01:42:34;13.87;;;10.70;;
35578;SDS011;21687;48.900;9.188;2023-04-08T01:45:02;15.40;;;10.77;;
35578;SDS011;21687;48.900;9.188;2023-04-08T01:47:29;14.20;;;10.77;;
35578;SDS011;21687;48.900;9.188;2023-04-08T01:49:58;16.13;;;10.67;;
35578;SDS011;21687;48.900;9.188;2023-04-08T01:52:25;14.87;;;11.40;;
35578;SDS011;21687;48.900;9.188;2023-04-08T01:54:53;18.20;;;12.20;;
35578;SDS011;21687;48.900;9.188;2023-04-08T01:57:23;14.73;;;11.20;;
35578;SDS011;21687;48.900;9.188;2023-04-08T01:59:52;16.40;;;12.17;;
35578;SDS011;21687;48.900;9.188;2023-04-08T02:02:24;15.53;;;12.17;;
35578;SDS011;21687;48.900;9.188;2023-04-08T02:04:52;15.83;;;11.33;;
35578;SDS011;21687;48.900;9.188;2023-04-08T02:07:19;15.57;;;12.00;;
35578;SDS011;21687;48.900;9.188;2023-04-08T02:09:45;16.97;;;12.13;;
35578;SDS011;21687;48.900;9.188;2023-04-08T02:12:11;16.47;;;12.53;;
35578;SDS011;21687;48.900;9.188;2023-04-08T02:14:38;17.73;;;13.00;;
35578;SDS011;21687;48.900;9.188;2023-04-08T02:17:07;17.13;;;11.90;;
35578;SDS011;21687;48.900;9.188;2023-04-08T02:19:40;18.57;;;12.60;;
35578;SDS011;21687;48.900;9.188;2023-04-08T02:22:16;18.80;;;13.83;;
35578;SDS011;21687;48.900;9.188;2023-04-08T02:24:59;16.20;;;12.93;;
35578;SDS011;21687;48.900;9.188;2023-04-08T02:27:28;15.37;;;12.03;;
35578;SDS011;21687;48.900;9.188;2023-04-08T02:29:58;18.00;;;13.20;;
35578;SDS011;21687;48.900;9.188;2023-04-08T02:32:27;19.50;;;13.60;;
35578;SDS011;21687;48.900;9.188;2023-04-08T02:34:56;18.13;;;13.20;;
35578;SDS011;21687;48.900;9.188;2023-04-08T02:37:27;17.50;;;12.73;;
35578;SDS011;21687;48.900;9.188;2023-04-08T02:39:53;18.37;;;13.67;;
35578;SDS011;21687;48.900;9.188;2023-04-08T02:42:20;18.30;;;12.70;;
35578;SDS011;21687;48.900;9.188;2023-04-08T02:44:46;17.80;;;12.57;;
35578;SDS011;21687;48.900;9.188;2023-04-08T02:47:12;18.07;;;13.13;;
35578;SDS011;21687;48.900;9.188;2023-04-08T02:49:39;18.53;;;13.47;;
35578;SDS011;21687;48.900;9.188;2023-04-08T02:52:05;18.27;;;12.53;;
35578;SDS011;21687;48.900;9.188;2023-04-08T02:54:31;18.43;;;13.03;;
35578;SDS011;21687;48.900;9.188;2023-04-08T02:56:58;20.20;;;13.40;;
35578;SDS011;21687;48.900;9.188;2023-04-08T02:59:24;18.93;;;12.70;;
35578;SDS011;21687;48.900;9.188;2023-04-08T03:01:50;20.90;;;13.90;;
35578;SDS011;21687;48.900;9.188;2023-04-08T03:04:17;22.27;;;14.40;;
35578;SDS011;21687;48.900;9.188;2023-04-08T03:06:43;23.00;;;14.50;;
35578;SDS011;21687;48.900;9.188;2023-04-08T03:09:09;21.03;;;14.07;;
35578;SDS011;21687;48.900;9.188;2023-04-08T03:11:35;22.20;;;14.93;;
35578;SDS011;21687;48.900;9.188;2023-04-08T03:14:01;23.20;;;15.43;;
35578;SDS011;21687;48.900;9.188;2023-04-08T03:16:28;19.27;;;13.87;;
35578;SDS011;21687;48.900;9.188;2023-04-08T03:18:54;23.43;;;15.23;;
35578;SDS011;21687;48.900;9.188;2023-04-08T03:21:20;22.57;;;14.40;;
35578;SDS011;21687;48.900;9.188;2023-04-08T03:23:46;23.67;;;15.33;;
35578;SDS011;21687;48.900;9.188;2023-04-08T03:26:13;24.10;;;15.23;;
35578;SDS011;21687;48.900;9.188;2023-04-08T03:28:39;22.47;;;14.40;;
35578;SDS011;21687;48.900;9.188;2023-04-08T03:31:05;23.20;;;14.87;;
35578;SDS011;21687;48.900;9.188;2023-04-08T03:33:31;24.47;;;15.50;;
35578;SDS011;21687;48.900;9.188;2023-04-08T03:35:58;25.87;;;15.40;;
35578;SDS011;21687;48.900;9.188;2023-04-08T03:38:25;23.77;;;14.70;;
35578;SDS011;21687;48.900;9.188;2023-04-08T03:40:51;24.80;;;14.53;;
35578;SDS011;21687;48.900;9.188;2023-04-08T03:43:17;24.37;;;15.50;;
35578;SDS011;21687;48.900;9.188;2023-04-08T03:45:46;24.03;;;14.73;;
35578;SDS011;21687;48.900;9.188;2023-04-08T03:48:12;25.37;;;15.60;;
35578;SDS011;21687;48.900;9.188;2023-04-08T03:50:38;25.17;;;15.23;;
35578;SDS011;21687;48.900;9.188;2023-04-08T03:53:04;24.17;;;15.27;;
35578;SDS011;21687;48.900;9.188;2023-04-08T03:55:30;26.03;;;15.57;;
35578;SDS011;21687;48.900;9.188;2023-04-08T03:57:57;26.87;;;14.47;;
35578;SDS011;21687;48.900;9.188;2023-04-08T04:00:23;25.63;;;15.37;;
35578;SDS011;21687;48.900;9.188;2023-04-08T04:02:49;28.37;;;16.37;;
35578;SDS011;21687;48.900;9.188;2023-04-08T04:05:15;27.57;;;15.93;;
35578;SDS011;21687;48.900;9.188;2023-04-08T04:07:42;27.47;;;16.03;;
35578;SDS011;21687;48.900;9.188;2023-04-08T04:10:08;29.67;;;16.03;;
35578;SDS011;21687;48.900;9.188;2023-04-08T04:12:35;25.40;;;16.03;;
35578;SDS011;21687;48.900;9.188;2023-04-08T04:15:02;28.20;;;15.50;;
35578;SDS011;21687;48.900;9.188;2023-04-08T04:17:28;27.23;;;15.90;;
35578;SDS011;21687;48.900;9.188;2023-04-08T04:19:55;26.03;;;16.60;;
35578;SDS011;21687;48.900;9.188;2023-04-08T04:22:21;29.03;;;16.17;;
35578;SDS011;21687;48.900;9.188;2023-04-08T04:24:48;27.60;;;16.03;;
35578;SDS011;21687;48.900;9.188;2023-04-08T04:27:14;28.77;;;16.83;;
35578;SDS011;21687;48.900;9.188;2023-04-08T04:29:43;31.40;;;17.43;;
35578;SDS011;21687;48.900;9.188;2023-04-08T04:32:09;27.17;;;15.93;;
35578;SDS011;21687;48.900;9.188;2023-04-08T04:34:35;28.57;;;16.77;;
35578;SDS011;21687;48.900;9.188;2023-04-08T04:37:02;30.80;;;16.77;;
35578;SDS011;21687;48.900;9.188;2023-04-08T04:39:28;32.67;;;17.60;;
35578;SDS011;21687;48.900;9.188;2023-04-08T04:41:55;32.50;;;18.20;;
35578;SDS011;21687;48.900;9.188;2023-04-08T04:44:21;35.80;;;18.47;;
35578;SDS011;21687;48.900;9.188;2023-04-08T04:46:48;37.77;;;19.00;;
35578;SDS011;21687;48.900;9.188;2023-04-08T04:49:14;40.47;;;19.73;;
35578;SDS011;21687;48.900;9.188;2023-04-08T04:51:40;37.57;;;19.23;;
35578;SDS011;21687;48.900;9.188;2023-04-08T04:54:06;38.40;;;20.10;;
35578;SDS011;21687;48.900;9.188;2023-04-08T04:56:33;37.57;;;19.37;;
35578;SDS011;21687;48.900;9.188;2023-04-08T04:58:59;33.70;;;18.97;;
35578;SDS011;21687;48.900;9.188;2023-04-08T05:01:25;35.90;;;19.77;;
35578;SDS011;21687;48.900;9.188;2023-04-08T05:03:53;32.93;;;19.10;;
35578;SDS011;21687;48.900;9.188;2023-04-08T05:06:19;35.93;;;19.47;;
35578;SDS011;21687;48.900;9.188;2023-04-08T05:08:47;37.73;;;19.87;;
35578;SDS011;21687;48.900;9.188;2023-04-08T05:11:13;38.27;;;20.17;;
35578;SDS011;21687;48.900;9.188;2023-04-08T05:13:42;39.20;;;19.07;;
35578;SDS011;21687;48.900;9.188;2023-04-08T05:16:09;37.27;;;20.17;;
35578;SDS011;21687;48.900;9.188;2023-04-08T05:18:35;42.13;;;20.63;;
35578;SDS011;21687;48.900;9.188;2023-04-08T05:21:01;40.00;;;19.37;;
35578;SDS011;21687;48.900;9.188;2023-04-08T05:23:28;34.90;;;19.90;;
35578;SDS011;21687;48.900;9.188;2023-04-08T05:25:54;41.90;;;20.33;;
35578;SDS011;21687;48.900;9.188;2023-04-08T05:28:21;35.13;;;19.47;;
35578;SDS011;21687;48.900;9.188;2023-04-08T05:30:48;40.07;;;20.73;;
35578;SDS011;21687;48.900;9.188;2023-04-08T05:33:15;46.70;;;22.63;;
35578;SDS011;21687;48.900;9.188;2023-04-08T05:35:42;40.33;;;21.23;;
35578;SDS011;21687;48.900;9.188;2023-04-08T05:38:08;42.90;;;22.80;;
35578;SDS011;21687;48.900;9.188;2023-04-08T05:40:35;41.17;;;20.23;;
35578;SDS011;21687;48.900;9.188;2023-04-08T05:43:01;42.67;;;20.47;;
35578;SDS011;21687;48.900;9.188;2023-04-08T05:45:27;43.93;;;21.77;;
35578;SDS011;21687;48.900;9.188;2023-04-08T05:47:54;42.53;;;20.20;;
35578;SDS011;21687;48.900;9.188;2023-04-08T05:50:21;42.63;;;21.43;;
35578;SDS011;21687;48.900;9.188;2023-04-08T05:52:47;40.77;;;21.23;;
35578;SDS011;21687;48.900;9.188;2023-04-08T05:55:13;39.90;;;21.60;;
35578;SDS011;21687;48.900;9.188;2023-04-08T05:57:40;39.20;;;21.33;;
35578;SDS011;21687;48.900;9.188;2023-04-08T06:00:07;43.67;;;22.83;;
35578;SDS011;21687;48.900;9.188;2023-04-08T06:02:34;39.43;;;21.20;;
35578;SDS011;21687;48.900;9.188;2023-04-08T06:05:01;40.70;;;21.27;;
35578;SDS011;21687;48.900;9.188;2023-04-08T06:07:28;43.27;;;21.70;;
35578;SDS011;21687;48.900;9.188;2023-04-08T06:09:54;41.00;;;21.33;;
35578;SDS011;21687;48.900;9.188;2023-04-08T06:12:20;33.60;;;20.30;;
35578;SDS011;21687;48.900;9.188;2023-04-08T06:14:47;33.97;;;21.13;;
35578;SDS011;21687;48.900;9.188;2023-04-08T06:17:17;35.93;;;19.83;;
35578;SDS011;21687;48.900;9.188;2023-04-08T06:19:43;37.37;;;21.40;;
35578;SDS011;21687;48.900;9.188;2023-04-08T06:22:09;34.40;;;20.00;;
35578;SDS011;21687;48.900;9.188;2023-04-08T06:24:36;35.47;;;20.73;;
35578;SDS011;21687;48.900;9.188;2023-04-08T06:27:02;35.67;;;20.30;;
35578;SDS011;21687;48.900;9.188;2023-04-08T06:29:28;30.60;;;20.17;;
35578;SDS011;21687;48.900;9.188;2023-04-08T06:31:55;30.93;;;18.57;;
35578;SDS011;21687;48.900;9.188;2023-04-08T06:34:21;29.20;;;18.23;;
35578;SDS011;21687;48.900;9.188;2023-04-08T06:36:47;25.80;;;16.97;;
35578;SDS011;21687;48.900;9.188;2023-04-08T06:39:14;27.77;;;18.10;;
35578;SDS011;21687;48.900;9.188;2023-04-08T06:41:41;27.17;;;17.47;;
35578;SDS011;21687;48.900;9.188;2023-04-08T06:44:07;26.07;;;17.23;;
35578;SDS011;21687;48.900;9.188;2023-04-08T06:46:33;27.70;;;17.37;;
35578;SDS011;21687;48.900;9.188;2023-04-08T06:49:00;26.73;;;18.00;;
35578;SDS011;21687;48.900;9.188;2023-04-08T06:51:28;23.60;;;16.13;;
35578;SDS011;21687;48.900;9.188;2023-04-08T06:53:55;24.63;;;16.00;;
35578;SDS011;21687;48.900;9.188;2023-04-08T06:56:21;21.93;;;14.77;;
35578;SDS011;21687;48.900;9.188;2023-04-08T06:58:50;22.80;;;15.47;;
35578;SDS011;21687;48.900;9.188;2023-04-08T07:01:17;20.43;;;14.50;;
35578;SDS011;21687;48.900;9.188;2023-04-08T07:03:43;18.27;;;13.57;;
35578;SDS011;21687;48.900;9.188;2023-04-08T07:06:09;21.03;;;14.73;;
35578;SDS011;21687;48.900;9.188;2023-04-08T07:08:35;19.77;;;13.03;;
35578;SDS011;21687;48.900;9.188;2023-04-08T07:11:02;17.97;;;13.03;;
35578;SDS011;21687;48.900;9.188;2023-04-08T07:13:29;15.20;;;11.77;;
35578;SDS011;21687;48.900;9.188;2023-04-08T07:15:55;15.80;;;11.27;;
35578;SDS011;21687;48.900;9.188;2023-04-08T07:18:22;15.93;;;11.13;;
35578;SDS011;21687;48.900;9.188;2023-04-08T07:20:51;17.20;;;11.83;;
35578;SDS011;21687;48.900;9.188;2023-04-08T07:23:18;14.97;;;11.10;;
35578;SDS011;21687;48.900;9.188;2023-04-08T07:25:45;15.33;;;10.33;;
35578;SDS011;21687;48.900;9.188;2023-04-08T07:28:12;14.17;;;10.23;;
35578;SDS011;21687;48.900;9.188;2023-04-08T07:30:38;13.87;;;10.40;;
35578;SDS011;21687;48.900;9.188;2023-04-08T07:33:04;11.57;;;9.10;;
35578;SDS011;21687;48.900;9.188;2023-04-08T07:35:32;11.93;;;8.83;;
35578;SDS011;21687;48.900;9.188;2023-04-08T07:37:58;11.47;;;9.07;;
35578;SDS011;21687;48.900;9.188;2023-04-08T07:40:25;12.27;;;10.10;;
35578;SDS011;21687;48.900;9.188;2023-04-08T07:42:51;12.40;;;9.90;;
35578;SDS011;21687;48.900;9.188;2023-04-08T07:45:17;13.17;;;9.90;;
35578;SDS011;21687;48.900;9.188;2023-04-08T07:47:44;13.57;;;9.87;;
35578;SDS011;21687;48.900;9.188;2023-04-08T07:50:11;10.60;;;9.03;;
35578;SDS011;21687;48.900;9.188;2023-04-08T07:52:37;11.53;;;9.50;;
35578;SDS011;21687;48.900;9.188;2023-04-08T07:55:04;12.67;;;9.67;;
35578;SDS011;21687;48.900;9.188;2023-04-08T07:57:30;14.50;;;10.93;;
35578;SDS011;21687;48.900;9.188;2023-04-08T07:59:57;13.97;;;10.73;;
35578;SDS011;21687;48.900;9.188;2023-04-08T08:02:23;14.33;;;11.00;;
35578;SDS011;21687;48.900;9.188;2023-04-08T08:04:49;13.30;;;10.30;;
35578;SDS011;21687;48.900;9.188;2023-04-08T08:07:16;14.10;;;11.23;;
35578;SDS011;21687;48.900;9.188;2023-04-08T08:09:42;15.03;;;10.63;;
35578;SDS011;21687;48.900;9.188;2023-04-08T08:12:08;14.10;;;10.73;;
35578;SDS011;21687;48.900;9.188;2023-04-08T08:14:35;13.17;;;9.90;;
35578;SDS011;21687;48.900;9.188;2023-04-08T08:17:02;13.10;;;10.90;;
35578;SDS011;21687;48.900;9.188;2023-04-08T08:19:28;12.93;;;10.10;;
35578;SDS011;21687;48.900;9.188;2023-04-08T08:21:55;16.47;;;11.30;;
35578;SDS011;21687;48.900;9.188;2023-04-08T08:24:21;14.87;;;11.43;;
35578;SDS011;21687;48.900;9.188;2023-04-08T08:26:47;13.73;;;11.13;;
35578;SDS011;21687;48.900;9.188;2023-04-08T08:29:14;14.90;;;10.90;;
35578;SDS011;21687;48.900;9.188;2023-04-08T08:31:40;15.63;;;11.13;;
35578;SDS011;21687;48.900;9.188;2023-04-08T08:34:06;13.10;;;10.80;;
35578;SDS011;21687;48.900;9.188;2023-04-08T08:36:32;14.27;;;10.53;;
35578;SDS011;21687;48.900;9.188;2023-04-08T08:38:59;14.47;;;10.63;;
35578;SDS011;21687;48.900;9.188;2023-04-08T08:41:26;14.47;;;10.57;;
35578;SDS011;21687;48.900;9.188;2023-04-08T08:43:57;13.20;;;10.27;;
35578;SDS011;21687;48.900;9.188;2023-04-08T08:46:25;12.00;;;9.80;;
35578;SDS011;21687;48.900;9.188;2023-04-08T08:48:51;12.40;;;9.57;;
35578;SDS011;21687;48.900;9.188;2023-04-08T08:51:17;12.50;;;9.23;;
35578;SDS011;21687;48.900;9.188;2023-04-08T08:53:44;12.07;;;9.70;;
35578;SDS011;21687;48.900;9.188;2023-04-08T08:56:10;12.23;;;9.73;;
35578;SDS011;21687;48.900;9.188;2023-04-08T08:58:37;14.03;;;10.13;;
35578;SDS011;21687;48.900;9.188;2023-04-08T09:01:28;16.40;;;10.40;;
35578;SDS011;21687;48.900;9.188;2023-04-08T09:04:09;13.30;;;10.53;;
35578;SDS011;21687;48.900;9.188;2023-04-08T09:06:38;15.23;;;10.47;;
35578;SDS011;21687;48.900;9.188;2023-04-08T09:09:04;13.67;;;10.63;;
35578;SDS011;21687;48.900;9.188;2023-04-08T09:11:34;13.37;;;10.63;;
35578;SDS011;21687;48.900;9.188;2023-04-08T09:14:02;13.40;;;10.20;;
35578;SDS011;21687;48.900;9.188;2023-04-08T09:16:29;13.40;;;9.73;;
35578;SDS011;21687;48.900;9.188;2023-04-08T09:18:57;15.67;;;11.33;;
35578;SDS011;21687;48.900;9.188;2023-04-08T09:21:34;13.20;;;10.63;;
35578;SDS011;21687;48.900;9.188;2023-04-08T09:24:01;12.80;;;9.60;;
35578;SDS011;21687;48.900;9.188;2023-04-08T09:26:27;13.07;;;10.77;;
35578;SDS011;21687;48.900;9.188;2023-04-08T09:29:01;14.33;;;11.10;;
35578;SDS011;21687;48.900;9.188;2023-04-08T09:31:35;11.13;;;9.67;;
35578;SDS011;21687;48.900;9.188;2023-04-08T09:34:14;16.50;;;11.03;;
35578;SDS011;21687;48.900;9.188;2023-04-08T09:36:43;12.27;;;10.57;;
35578;SDS011;21687;48.900;9.188;2023-04-08T09:39:10;11.43;;;10.13;;
35578;SDS011;21687;48.900;9.188;2023-04-08T09:41:36;12.37;;;10.33;;
35578;SDS011;21687;48.900;9.188;2023-04-08T09:44:04;13.60;;;10.80;;
35578;SDS011;21687;48.900;9.188;2023-04-08T09:46:35;15.60;;;10.33;;
35578;SDS011;21687;48.900;9.188;2023-04-08T09:49:32;12.10;;;10.20;;
35578;SDS011;21687;48.900;9.188;2023-04-08T10:00:08;12.53;;;9.50;;
35578;SDS011;21687;48.900;9.188;2023-04-08T10:02:40;11.20;;;9.50;;
35578;SDS011;21687;48.900;9.188;2023-04-08T10:05:25;11.20;;;9.10;;
35578;SDS011;21687;48.900;9.188;2023-04-08T10:07:54;14.57;;;10.23;;
35578;SDS011;21687;48.900;9.188;2023-04-08T10:10:21;13.13;;;9.90;;
35578;SDS011;21687;48.900;9.188;2023-04-08T10:12:49;13.63;;;10.87;;
35578;SDS011;21687;48.900;9.188;2023-04-08T10:18:39;10.20;;;8.87;;
35578;SDS011;21687;48.900;9.188;2023-04-08T10:20:43;12.50;;;10.53;;
35578;SDS011;21687;48.900;9.188;2023-04-08T10:23:12;13.57;;;9.67;;
35578;SDS011;21687;48.900;9.188;2023-04-08T10:25:40;15.07;;;10.17;;
35578;SDS011;21687;48.900;9.188;2023-04-08T10:30:42;11.37;;;9.30;;
35578;SDS011;21687;48.900;9.188;2023-04-08T10:33:16;13.53;;;9.73;;
35578;SDS011;21687;48.900;9.188;2023-04-08T10:35:46;13.17;;;9.77;;
35578;SDS011;21687;48.900;9.188;2023-04-08T10:38:16;11.60;;;10.00;;
35578;SDS011;21687;48.900;9.188;2023-04-08T10:40:43;11.40;;;9.17;;
35578;SDS011;21687;48.900;9.188;2023-04-08T10:43:10;11.00;;;8.93;;
35578;SDS011;21687;48.900;9.188;2023-04-08T10:45:41;10.97;;;9.43;;
35578;SDS011;21687;48.900;9.188;2023-04-08T10:48:12;11.13;;;9.03;;
35578;SDS011;21687;48.900;9.188;2023-04-08T10:50:58;12.87;;;9.00;;
35578;SDS011;21687;48.900;9.188;2023-04-08T10:53:26;11.50;;;9.23;;
35578;SDS011;21687;48.900;9.188;2023-04-08T10:56:03;13.27;;;9.40;;
35578;SDS011;21687;48.900;9.188;2023-04-08T10:58:30;12.40;;;9.83;;
35578;SDS011;21687;48.900;9.188;2023-04-08T11:01:06;10.77;;;9.40;;
35578;SDS011;21687;48.900;9.188;2023-04-08T11:03:33;11.37;;;8.90;;
35578;SDS011;21687;48.900;9.188;2023-04-08T11:06:00;10.90;;;8.30;;
35578;SDS011;21687;48.900;9.188;2023-04-08T11:08:27;11.40;;;8.50;;
35578;SDS011;21687;48.900;9.188;2023-04-08T11:11:02;11.67;;;8.77;;
35578;SDS011;21687;48.900;9.188;2023-04-08T11:13:33;10.80;;;8.13;;
35578;SDS011;21687;48.900;9.188;2023-04-08T11:16:00;13.47;;;8.23;;
35578;SDS011;21687;48.900;9.188;2023-04-08T11:18:29;12.83;;;8.27;;
35578;SDS011;21687;48.900;9.188;2023-04-08T11:20:56;10.00;;;8.20;;
35578;SDS011;21687;48.900;9.188;2023-04-08T11:23:26;10.47;;;8.23;;
35578;SDS011;21687;48.900;9.188;2023-04-08T11:25:52;12.80;;;8.13;;
35578;SDS011;21687;48.900;9.188;2023-04-08T11:28:19;11.67;;;8.27;;
35578;SDS011;21687;48.900;9.188;2023-04-08T11:30:46;12.13;;;8.40;;
35578;SDS011;21687;48.900;9.188;2023-04-08T11:33:13;11.03;;;8.47;;
35578;SDS011;21687;48.900;9.188;2023-04-08T11:35:40;9.83;;;8.50;;
35578;SDS011;21687;48.900;9.188;2023-04-08T11:38:08;9.97;;;7.97;;
35578;SDS011;21687;48.900;9.188;2023-04-08T11:40:35;12.30;;;8.40;;
35578;SDS011;21687;48.900;9.188;2023-04-08T11:43:09;9.67;;;8.10;;
35578;SDS011;21687;48.900;9.188;2023-04-08T11:45:39;14.30;;;8.93;;
35578;SDS011;21687;48.900;9.188;2023-04-08T11:48:12;9.43;;;8.17;;
35578;SDS011;21687;48.900;9.188;2023-04-08T11:50:40;10.67;;;8.27;;
35578;SDS011;21687;48.900;9.188;2023-04-08T11:53:21;10.50;;;8.87;;
35578;SDS011;21687;48.900;9.188;2023-04-08T11:55:50;11.37;;;8.67;;
35578;SDS011;21687;48.900;9.188;2023-04-08T11:58:16;9.83;;;8.10;;
35578;SDS011;21687;48.900;9.188;2023-04-08T12:00:43;10.03;;;7.87;;
35578;SDS011;21687;48.900;9.188;2023-04-08T12:03:10;9.37;;;8.00;;
35578;SDS011;21687;48.900;9.188;2023-04-08T12:05:37;12.40;;;8.37;;
35578;SDS011;21687;48.900;9.188;2023-04-08T12:08:03;13.37;;;7.73;;
35578;SDS011;21687;48.900;9.188;2023-04-08T12:10:30;11.13;;;8.50;;
35578;SDS011;21687;48.900;9.188;2023-04-08T12:12:56;9.83;;;8.07;;
35578;SDS011;21687;48.900;9.188;2023-04-08T12:15:23;11.27;;;8.43;;
35578;SDS011;21687;48.900;9.188;2023-04-08T12:17:49;11.87;;;8.53;;
35578;SDS011;21687;48.900;9.188;2023-04-08T12:20:15;12.20;;;8.40;;
35578;SDS011;21687;48.900;9.188;2023-04-08T12:22:42;8.93;;;7.93;;
35578;SDS011;21687;48.900;9.188;2023-04-08T12:25:08;13.97;;;9.20;;
35578;SDS011;21687;48.900;9.188;2023-04-08T12:27:35;10.50;;;8.43;;
35578;SDS011;21687;48.900;9.188;2023-04-08T12:30:01;10.90;;;8.60;;
35578;SDS011;21687;48.900;9.188;2023-04-08T12:32:28;8.73;;;7.37;;
35578;SDS011;21687;48.900;9.188;2023-04-08T12:34:54;10.73;;;8.43;;
35578;SDS011;21687;48.900;9.188;2023-04-08T12:37:20;10.17;;;8.10;;
35578;SDS011;21687;48.900;9.188;2023-04-08T12:39:47;10.33;;;8.50;;
35578;SDS011;21687;48.900;9.188;2023-04-08T12:42:13;12.17;;;8.30;;
35578;SDS011;21687;48.900;9.188;2023-04-08T12:44:40;15.57;;;9.30;;
35578;SDS011;21687;48.900;9.188;2023-04-08T12:47:06;10.07;;;7.60;;
35578;SDS011;21687;48.900;9.188;2023-04-08T12:49:33;12.17;;;8.33;;
35578;SDS011;21687;48.900;9.188;2023-04-08T12:51:59;11.87;;;8.70;;
35578;SDS011;21687;48.900;9.188;2023-04-08T12:54:25;12.27;;;8.50;;
35578;SDS011;21687;48.900;9.188;2023-04-08T12:56:51;9.03;;;7.97;;
35578;SDS011;21687;48.900;9.188;2023-04-08T12:59:18;9.70;;;8.63;;
35578;SDS011;21687;48.900;9.188;2023-04-08T13:01:44;9.50;;;7.97;;
35578;SDS011;21687;48.900;9.188;2023-04-08T13:04:11;9.27;;;8.07;;
35578;SDS011;21687;48.900;9.188;2023-04-08T13:06:37;12.07;;;8.87;;
35578;SDS011;21687;48.900;9.188;2023-04-08T13:09:03;9.40;;;8.40;;
35578;SDS011;21687;48.900;9.188;2023-04-08T13:11:29;11.20;;;7.73;;
35578;SDS011;21687;48.900;9.188;2023-04-08T13:13:58;8.87;;;7.60;;
35578;SDS011;21687;48.900;9.188;2023-04-08T13:16:24;12.83;;;7.80;;
35578;SDS011;21687;48.900;9.188;2023-04-08T13:18:51;11.10;;;7.83;;
35578;SDS011;21687;48.900;9.188;2023-04-08T13:21:17;12.17;;;8.63;;
35578;SDS011;21687;48.900;9.188;2023-04-08T13:23:43;11.57;;;7.87;;
35578;SDS011;21687;48.900;9.188;2023-04-08T13:26:11;11.03;;;8.60;;
35578;SDS011;21687;48.900;9.188;2023-04-08T13:28:37;10.90;;;8.30;;
35578;SDS011;21687;48.900;9.188;2023-04-08T13:31:03;9.33;;;8.30;;
35578;SDS011;21687;48.900;9.188;2023-04-08T13:33:29;8.70;;;7.77;;
35578;SDS011;21687;48.900;9.188;2023-04-08T13:35:56;12.30;;;8.13;;
35578;SDS011;21687;48.900;9.188;2023-04-08T13:38:22;9.70;;;7.83;;
35578;SDS011;21687;48.900;9.188;2023-04-08T13:40:48;13.20;;;7.83;;
35578;SDS011;21687;48.900;9.188;2023-04-08T13:43:14;9.00;;;7.87;;
35578;SDS011;21687;48.900;9.188;2023-04-08T13:45:41;8.43;;;7.33;;
35578;SDS011;21687;48.900;9.188;2023-04-08T13:48:07;12.93;;;7.60;;
35578;SDS011;21687;48.900;9.188;2023-04-08T13:50:33;9.97;;;7.10;;
35578;SDS011;21687;48.900;9.188;2023-04-08T13:53:00;10.40;;;8.20;;
35578;SDS011;21687;48.900;9.188;2023-04-08T13:55:26;10.40;;;7.20;;
35578;SDS011;21687;48.900;9.188;2023-04-08T13:57:52;8.80;;;7.40;;
35578;SDS011;21687;48.900;9.188;2023-04-08T14:00:20;9.97;;;7.77;;
35578;SDS011;21687;48.900;9.188;2023-04-08T14:02:46;10.73;;;7.90;;
35578;SDS011;21687;48.900;9.188;2023-04-08T14:05:14;9.40;;;6.83;;
35578;SDS011;21687;48.900;9.188;2023-04-08T14:07:40;9.47;;;7.57;;
35578;SDS011;21687;48.900;9.188;2023-04-08T14:10:07;10.23;;;6.63;;
35578;SDS011;21687;48.900;9.188;2023-04-08T14:12:33;8.00;;;7.00;;
35578;SDS011;21687;48.900;9.188;2023-04-08T14:14:59;9.43;;;6.90;;
35578;SDS011;21687;48.900;9.188;2023-04-08T14:17:26;10.37;;;7.30;;
35578;SDS011;21687;48.900;9.188;2023-04-08T14:19:53;6.87;;;6.17;;
35578;SDS011;21687;48.900;9.188;2023-04-08T14:22:19;8.07;;;6.50;;
35578;SDS011;21687;48.900;9.188;2023-04-08T14:24:45;7.83;;;6.60;;
35578;SDS011;21687;48.900;9.188;2023-04-08T14:27:11;10.40;;;7.10;;
35578;SDS011;21687;48.900;9.188;2023-04-08T14:29:37;6.67;;;5.97;;
35578;SDS011;21687;48.900;9.188;2023-04-08T14:32:04;8.03;;;6.40;;
35578;SDS011;21687;48.900;9.188;2023-04-08T14:34:30;6.30;;;5.63;;
35578;SDS011;21687;48.900;9.188;2023-04-08T14:36:56;7.73;;;5.77;;
35578;SDS011;21687;48.900;9.188;2023-04-08T14:39:23;8.03;;;5.50;;
35578;SDS011;21687;48.900;9.188;2023-04-08T14:41:49;7.63;;;6.13;;
35578;SDS011;21687;48.900;9.188;2023-04-08T14:44:15;7.40;;;5.60;;
35578;SDS011;21687;48.900;9.188;2023-04-08T14:46:41;7.77;;;5.40;;
35578;SDS011;21687;48.900;9.188;2023-04-08T14:49:07;7.30;;;6.13;;